Airfield :
LOGIN :

Register | Disclaimer

   EN    FR    IT 

 










Legend :    VFR   Marginal VFR   IFR   Intensive IFR   Very Intensive IFR
Visi :
Ceiling :
>= 8 km
>= 3000ft
5 to 8 km
1000 to 3000 ft
1500m to 5 km
500 to 1000 ft
800 to 1500m
200 to 500 ft
< 800m
< 200 ft
Symbols :   Thunderstorms  Fog  Heavy snow  Heavy precipitations  Wind > 20 kt
SIGMETs :     Misc.  Thunderstorms  Icing  Turbulence  Mountain Waves  Volcanic Ashes






- Airport Elevation : 49 ft
- IATA code : GLZ


EHGR - Gilze-Rijen Airbase

CURRENT METAR :
  • 190625Z AUTO 02009KT 290V050 6000 BR BKN005 OVC006 14/14 Q1016 YLO

EXPIRED METARs :
  • 190555Z AUTO 02007KT 320V050 4100 BR BKN004 OVC005 14/14 Q1016 YLO
  • 190525Z AUTO 01008KT 320V060 4600 BR OVC004 14/14 Q1016 YLO
  • 190455Z AUTO 02009KT 320V060 4100 BR OVC004 14/14 Q1016 YLO
  • 190425Z AUTO 02006KT 320V070 3700 BR SCT004 OVC005 14/14 Q1015 YLO
  • 190355Z AUTO 01007KT 310V050 3900 BR SCT004 OVC010 14/14 Q1015 YLO
  • 190336Z AUTO 36007KT 300V060 3900 BR BKN003 BKN006 BKN008 14/14 Q1015 YLO
  • 190325Z AUTO 35006KT 300V060 4100 BR OVC003 14/14 Q1015 YLO
  • 190255Z AUTO 34005KT 280V030 3000 BR SCT004 BKN005 OVC006 15/15 Q1015 YLO
  • 190225Z AUTO 34005KT 290V050 3000 BR FEW003 OVC086 14/14 Q1014 YLO
  • 190155Z AUTO 36003KT 290V060 1900 BR FEW005 SCT008 BKN012 14/14 Q1014 YLO

TAF TAF EHGR
Valid from the 19 at 05:00 until the 19 at 17:00 UTC


190434Z 1905/1917 01005KT 3500 BR SCT005 BKN007
BECMG 1905/1907 6000 NSW SCT012
BECMG 1907/1909 FEW016 SCT020



MET'MAP, your aeronautical weather chart ! - Copyright ORBIFLY December 2007 - Disclaimer

ORBIFLY MET'MAP TEAM :

Programming & Development : Alexandra Zaïnal
Original concept : Baudouin d'Aumeries
Technical & hardware support : Manuel Goepfert
Assistance : Marc-Olivier Méhu




SOURCES & CREDITS :

   NOAA